Shearwater — 3ESK5 — position and weather

sailwx.info

Track history (hours):
 
Tides and Currents Weather Stations Pressure Air Temp Water Temp Dewpoint Dewpoint Depression Visibility Wind Speed Wind Dir Waves Ship Positions

Shearwater

Last reported at 2016-Aug-03 19:13 UTC. Time now 2016-Aug-30 07:26 UTC.
Position N 01°16' E 104°14'.
Warning: this ship's position is 26 days out of date.

Length 210 m; draft 10.6 m.

Type: Cargo ship. MMSI: 370338000.

Date/timePositionNaut miles runAvg speedWind from/ knotsBaromVisibWave heightAir tempDewpointWater temp
2016-Aug-03 19:13N 01°16' E 104°14'913.9
2016-Aug-03 18:33N 01°15' E 104°05'8 8.5
2016-Aug-03 17:33N 01°16' E 103°56'1 1.3
2016-Aug-03 16:26N 01°17' E 103°57'0 0.0
2016-Aug-03 12:20N 01°17' E 103°57'0 0.0
2016-Aug-03 11:32N 01°17' E 103°57'0 0.1
2016-Aug-03 10:32N 01°17' E 103°57'0 0.1
2016-Aug-03 09:32N 01°17' E 103°57'0 0.1
2016-Aug-03 08:32N 01°17' E 103°57'1 1.5
2016-Aug-03 07:33N 01°16' E 103°56'3 2.6
2016-Aug-03 06:33N 01°14' E 103°58'8 4.2
2016-Aug-03 04:33N 01°10' E 103°50'5 4.9
2016-Aug-03 03:32N 01°08' E 103°46'5 5.1
2016-Aug-03 02:32N 01°04' E 103°42'67 8.1
2016-Aug-02 18:15N 01°40' E 102°46'710.0
2016-Aug-02 17:33N 01°43' E 102°39'1110.4
2016-Aug-02 16:33N 01°47' E 102°30'1111.1
2016-Aug-02 15:33N 01°51' E 102°20'  
Track history (hours):
 
Tides and Currents Weather Stations Pressure Air Temp Water Temp Dewpoint Dewpoint Depression Visibility Wind Speed Wind Dir Waves Ship Positions

Shearwater

Last reported at 2016-Aug-03 19:13 UTC. Time now 2016-Aug-30 07:26 UTC.
Position N 01°16' E 104°14'.
Warning: this ship's position is 26 days out of date.

Length 210 m; draft 10.6 m.

Type: Cargo ship. MMSI: 370338000.

Date/timePositionNaut miles runAvg speedWind from/ knotsBaromVisibWave heightAir tempDewpointWater temp
2016-Aug-03 19:13N 01°16' E 104°14'913.9
2016-Aug-03 18:33N 01°15' E 104°05'8 8.5
2016-Aug-03 17:33N 01°16' E 103°56'1 1.3
2016-Aug-03 16:26N 01°17' E 103°57'0 0.0
2016-Aug-03 12:20N 01°17' E 103°57'0 0.0
2016-Aug-03 11:32N 01°17' E 103°57'0 0.1
2016-Aug-03 10:32N 01°17' E 103°57'0 0.1
2016-Aug-03 09:32N 01°17' E 103°57'0 0.1
2016-Aug-03 08:32N 01°17' E 103°57'1 1.5
2016-Aug-03 07:33N 01°16' E 103°56'3 2.6
2016-Aug-03 06:33N 01°14' E 103°58'8 4.2
2016-Aug-03 04:33N 01°10' E 103°50'5 4.9
2016-Aug-03 03:32N 01°08' E 103°46'5 5.1
2016-Aug-03 02:32N 01°04' E 103°42'67 8.1
2016-Aug-02 18:15N 01°40' E 102°46'710.0
2016-Aug-02 17:33N 01°43' E 102°39'1110.4
2016-Aug-02 16:33N 01°47' E 102°30'1111.1
2016-Aug-02 15:33N 01°51' E 102°20'  

Dump ship's entire track history